createdAt,value
2019-05-19T00:01:25.505Z,47.13
2019-05-19T00:03:54.055Z,46.73
2019-05-19T00:06:22.537Z,47.60
2019-05-19T00:08:51.019Z,47.63
2019-05-19T00:11:19.586Z,47.00
2019-05-19T00:13:48.142Z,47.73
2019-05-19T00:16:16.703Z,46.03
2019-05-19T00:18:45.198Z,48.00
2019-05-19T00:21:13.679Z,47.33
2019-05-19T00:23:42.161Z,48.40
2019-05-19T00:26:12.197Z,47.57
2019-05-19T00:28:40.697Z,49.50
2019-05-19T00:31:09.205Z,47.63
2019-05-19T00:33:37.686Z,50.90
2019-05-19T00:36:06.162Z,48.80
2019-05-19T00:38:34.680Z,50.67
2019-05-19T00:41:03.174Z,50.57
2019-05-19T00:43:31.645Z,50.23
2019-05-19T00:46:00.153Z,51.90
2019-05-19T00:48:28.674Z,51.53
2019-05-19T00:50:57.221Z,51.17
2019-05-19T00:53:25.793Z,51.00
2019-05-19T00:55:54.467Z,51.37
2019-05-19T00:58:25.220Z,50.27
2019-05-19T01:00:53.730Z,53.37
2019-05-19T01:03:22.234Z,51.87
2019-05-19T01:05:50.822Z,50.33
2019-05-19T01:08:19.305Z,52.77
2019-05-19T01:10:48.063Z,52.03
2019-05-19T01:13:16.641Z,53.03
2019-05-19T01:15:45.146Z,51.83
2019-05-19T01:18:13.613Z,53.27
2019-05-19T01:20:42.525Z,53.43
2019-05-19T01:23:11.232Z,54.43
2019-05-19T01:25:39.734Z,55.00
2019-05-19T01:28:08.309Z,55.43
2019-05-19T01:30:36.951Z,54.83
2019-05-19T01:33:05.488Z,52.90
2019-05-19T01:35:33.993Z,54.40
2019-05-19T01:38:02.548Z,54.67
2019-05-19T01:40:31.053Z,55.03
2019-05-19T01:42:59.532Z,54.67
2019-05-19T01:45:28.004Z,54.23
2019-05-19T01:47:56.563Z,52.50
2019-05-19T01:50:25.119Z,54.57
2019-05-19T01:52:53.584Z,54.73
2019-05-19T01:55:22.096Z,55.53
2019-05-19T01:57:50.602Z,55.03
2019-05-19T02:00:19.295Z,53.93
2019-05-19T02:02:47.818Z,54.80
2019-05-19T02:05:16.550Z,52.20
2019-05-19T02:07:45.090Z,54.27
2019-05-19T02:10:13.803Z,53.77
2019-05-19T02:12:42.301Z,54.17
2019-05-19T02:15:11.313Z,56.10
2019-05-19T02:17:39.843Z,53.20
2019-05-19T02:20:08.660Z,54.20
2019-05-19T02:22:37.254Z,54.77
2019-05-19T02:25:06.260Z,54.20
2019-05-19T02:27:34.972Z,57.87
2019-05-19T02:30:05.113Z,55.37
2019-05-19T02:32:33.705Z,54.80
2019-05-19T02:35:02.195Z,56.87
2019-05-19T02:37:30.716Z,56.07
2019-05-19T02:39:59.201Z,55.27
2019-05-19T02:42:29.356Z,56.27
2019-05-19T02:44:59.636Z,55.60
2019-05-19T02:47:29.662Z,55.53
2019-05-19T02:50:00.039Z,59.13
2019-05-19T02:52:30.601Z,55.90
2019-05-19T02:55:01.103Z,57.23
2019-05-19T02:57:30.778Z,57.67
2019-05-19T02:59:59.830Z,56.90
2019-05-19T03:02:28.426Z,58.57
2019-05-19T03:04:56.934Z,55.70
2019-05-19T03:07:25.511Z,58.17
2019-05-19T03:09:53.998Z,57.17
2019-05-19T03:12:22.514Z,55.50
2019-05-19T03:14:50.994Z,59.13
2019-05-19T03:17:19.493Z,56.87
2019-05-19T03:19:48.049Z,55.90
2019-05-19T03:22:16.541Z,58.27
2019-05-19T03:24:45.140Z,56.43
2019-05-19T03:27:13.634Z,56.83
2019-05-19T03:29:46.245Z,58.77
2019-05-19T03:32:31.230Z,56.23
2019-05-19T03:34:59.776Z,55.70
2019-05-19T03:37:28.348Z,54.57
2019-05-19T03:39:56.917Z,56.27
2019-05-19T03:42:25.484Z,56.10
2019-05-19T03:44:53.972Z,56.20
2019-05-19T03:47:22.523Z,57.07
2019-05-19T03:49:51.115Z,55.67
2019-05-19T03:52:19.697Z,55.17
2019-05-19T03:54:48.241Z,54.80
2019-05-19T03:57:16.726Z,56.00
2019-05-19T03:59:45.305Z,57.30
2019-05-19T04:02:13.782Z,56.83
2019-05-19T04:04:42.349Z,56.63
2019-05-19T04:07:10.935Z,56.67
2019-05-19T04:09:39.491Z,57.27
2019-05-19T04:12:08.318Z,57.57
2019-05-19T04:14:36.904Z,57.07
2019-05-19T04:17:05.505Z,56.20
2019-05-19T04:19:34.081Z,57.63
2019-05-19T04:22:02.652Z,56.53
2019-05-19T04:24:31.218Z,58.63
2019-05-19T04:26:59.709Z,57.70
2019-05-19T04:29:28.202Z,56.50
2019-05-19T04:31:56.702Z,59.17
2019-05-19T04:34:25.197Z,56.17
2019-05-19T04:36:53.769Z,57.47
2019-05-19T04:39:22.340Z,57.40
2019-05-19T04:41:50.828Z,56.33
2019-05-19T04:44:19.394Z,55.27
2019-05-19T04:46:47.883Z,56.57
2019-05-19T04:49:16.452Z,56.87
2019-05-19T04:51:44.916Z,56.30
2019-05-19T04:54:13.431Z,56.50
2019-05-19T04:56:41.992Z,60.83
2019-05-19T04:59:10.565Z,58.17
2019-05-19T05:01:39.119Z,56.47
2019-05-19T05:04:07.706Z,56.97
2019-05-19T05:06:36.198Z,57.13
2019-05-19T05:09:07.300Z,56.87
2019-05-19T05:11:35.801Z,57.63
2019-05-19T05:14:04.439Z,57.00
2019-05-19T05:16:32.923Z,56.07
2019-05-19T05:19:01.489Z,58.07
2019-05-19T05:21:29.977Z,53.83
2019-05-19T05:23:58.566Z,53.77
2019-05-19T05:26:27.038Z,56.37
2019-05-19T05:28:55.625Z,54.63
2019-05-19T05:31:24.195Z,57.47
2019-05-19T05:33:52.681Z,54.70
2019-05-19T05:36:21.151Z,54.67
2019-05-19T05:38:49.653Z,54.70
2019-05-19T05:41:18.122Z,53.33
2019-05-19T05:43:46.611Z,54.10
2019-05-19T05:46:15.188Z,54.13
2019-05-19T05:48:43.711Z,53.53
2019-05-19T05:51:12.230Z,52.60
2019-05-19T05:53:40.787Z,52.13
2019-05-19T05:56:09.265Z,53.30
2019-05-19T05:58:37.719Z,52.10
2019-05-19T06:01:06.233Z,53.93
2019-05-19T06:03:34.790Z,54.57
2019-05-19T06:06:05.082Z,50.43
2019-05-19T06:08:33.726Z,52.40
2019-05-19T06:11:02.210Z,51.43
2019-05-19T06:13:30.683Z,51.37
2019-05-19T06:15:59.187Z,54.60
2019-05-19T06:18:27.709Z,50.97
2019-05-19T06:20:56.204Z,48.57
2019-05-19T06:23:24.765Z,52.83
2019-05-19T06:25:53.300Z,52.20
2019-05-19T06:28:21.863Z,51.37
2019-05-19T06:30:50.419Z,51.60
2019-05-19T06:33:18.945Z,52.13
2019-05-19T06:35:47.425Z,53.40
2019-05-19T06:38:15.985Z,53.13
2019-05-19T06:40:44.469Z,52.13
2019-05-19T06:43:12.985Z,50.80
2019-05-19T06:45:41.456Z,51.83
2019-05-19T06:48:10.115Z,51.83
2019-05-19T06:50:40.844Z,50.23
2019-05-19T06:53:13.878Z,52.67
2019-05-19T06:55:38.999Z,49.83
2019-05-19T06:58:07.524Z,51.67
2019-05-19T07:00:36.093Z,50.57
2019-05-19T07:03:04.608Z,51.00
2019-05-19T07:05:33.097Z,51.87
2019-05-19T07:08:01.660Z,50.43
2019-05-19T07:10:30.130Z,47.13
2019-05-19T07:12:58.613Z,51.20
2019-05-19T07:15:27.188Z,51.30
2019-05-19T07:17:55.668Z,51.37
2019-05-19T07:20:24.149Z,50.47
2019-05-19T07:22:52.712Z,52.33
2019-05-19T07:25:21.229Z,53.40
2019-05-19T07:27:49.791Z,51.50
2019-05-19T07:30:19.222Z,50.80
2019-05-19T07:32:47.756Z,51.53
2019-05-19T07:35:16.448Z,49.27
2019-05-19T07:37:44.934Z,50.03
2019-05-19T07:40:13.568Z,46.73
2019-05-19T07:42:42.059Z,51.27
2019-05-19T07:45:11.155Z,48.87
2019-05-19T07:47:39.733Z,48.20
2019-05-19T07:50:08.296Z,48.10
2019-05-19T07:52:36.869Z,48.60
2019-05-19T07:55:06.941Z,47.43
2019-05-19T07:57:35.452Z,47.17
2019-05-19T08:00:05.741Z,47.93
2019-05-19T08:02:34.326Z,46.13
2019-05-19T08:05:02.940Z,45.33
2019-05-19T08:07:31.444Z,46.73
2019-05-19T08:09:59.990Z,47.30
2019-05-19T08:12:28.464Z,46.23
2019-05-19T08:14:56.991Z,45.27
2019-05-19T08:17:26.085Z,43.97
2019-05-19T08:19:54.766Z,42.43
2019-05-19T08:22:25.178Z,44.10
2019-05-19T08:24:53.973Z,43.47
2019-05-19T08:27:22.549Z,42.20
2019-05-19T08:29:52.657Z,44.27
2019-05-19T08:32:21.310Z,43.57
2019-05-19T08:34:49.819Z,40.73
2019-05-19T08:37:18.297Z,39.90
2019-05-19T08:39:47.518Z,43.03
2019-05-19T08:42:17.095Z,41.07
2019-05-19T08:44:45.690Z,40.43
2019-05-19T08:47:14.238Z,43.37
2019-05-19T08:49:42.751Z,40.20
2019-05-19T08:52:11.368Z,40.33
2019-05-19T08:54:39.896Z,42.80
2019-05-19T08:57:08.379Z,41.67
2019-05-19T08:59:36.956Z,39.80
2019-05-19T09:02:05.455Z,40.17
2019-05-19T09:04:33.933Z,41.03
2019-05-19T09:07:02.516Z,38.60
2019-05-19T09:09:31.070Z,40.30
2019-05-19T09:11:59.627Z,38.13
2019-05-19T09:14:28.169Z,37.93
2019-05-19T09:16:56.744Z,37.03
2019-05-19T09:19:25.323Z,39.47
2019-05-19T09:21:53.876Z,38.93
2019-05-19T09:24:30.335Z,38.63
2019-05-19T09:26:52.717Z,36.40
2019-05-19T09:29:21.260Z,36.90
2019-05-19T09:31:49.771Z,38.00
2019-05-19T09:34:18.383Z,35.53
2019-05-19T09:36:47.001Z,36.37
2019-05-19T09:39:15.569Z,35.23
2019-05-19T09:41:44.149Z,36.90
2019-05-19T09:44:14.338Z,38.27
2019-05-19T09:46:42.889Z,36.57
2019-05-19T09:49:31.157Z,35.87
2019-05-19T09:52:00.165Z,36.27
2019-05-19T09:54:42.725Z,38.17
2019-05-19T09:57:00.431Z,34.77
2019-05-19T09:59:29.299Z,35.80
2019-05-19T10:01:57.955Z,36.87
2019-05-19T10:04:26.575Z,35.23
2019-05-19T10:06:55.180Z,36.97
2019-05-19T10:09:33.140Z,33.13
2019-05-19T10:12:03.700Z,34.30
2019-05-19T10:14:32.287Z,34.33
2019-05-19T10:17:00.928Z,36.23
2019-05-19T10:19:29.695Z,38.17
2019-05-19T10:21:58.286Z,37.30
2019-05-19T10:24:26.873Z,37.47
2019-05-19T10:26:56.999Z,33.07
2019-05-19T10:29:25.556Z,34.00
2019-05-19T10:31:54.572Z,35.23
2019-05-19T10:34:23.223Z,35.33
2019-05-19T10:36:51.826Z,34.37
2019-05-19T10:39:20.337Z,33.40
2019-05-19T10:41:48.835Z,32.73
2019-05-19T10:44:17.310Z,35.43
2019-05-19T10:46:46.367Z,36.67
2019-05-19T10:49:14.884Z,36.13
2019-05-19T10:51:43.432Z,33.80
2019-05-19T10:54:12.160Z,32.57
2019-05-19T10:56:40.667Z,32.67
2019-05-19T10:59:09.348Z,34.60
2019-05-19T11:01:37.916Z,32.87
2019-05-19T11:04:06.549Z,31.87
2019-05-19T11:06:35.028Z,32.90
2019-05-19T11:09:06.422Z,30.80
2019-05-19T11:11:35.286Z,31.27
2019-05-19T11:14:04.174Z,29.67
2019-05-19T11:16:33.231Z,30.47
2019-05-19T11:19:01.753Z,30.80
2019-05-19T11:21:31.176Z,31.47
2019-05-19T11:23:59.703Z,31.77
2019-05-19T11:26:28.191Z,31.73
2019-05-19T11:28:56.778Z,31.97
2019-05-19T11:31:25.335Z,31.80
2019-05-19T11:33:53.806Z,31.10
2019-05-19T11:36:22.356Z,31.63
2019-05-19T11:38:50.857Z,29.70
2019-05-19T11:41:19.817Z,28.97
2019-05-19T11:43:48.336Z,30.20
2019-05-19T11:46:16.916Z,30.53
2019-05-19T11:48:45.402Z,31.17
2019-05-19T11:51:13.893Z,32.40
2019-05-19T11:53:42.401Z,32.37
2019-05-19T11:56:11.752Z,32.90
2019-05-19T11:58:40.422Z,32.33
2019-05-19T12:01:08.938Z,35.00
2019-05-19T12:03:40.977Z,33.90
2019-05-19T12:06:09.268Z,32.73
2019-05-19T12:08:37.836Z,33.33
2019-05-19T12:11:06.402Z,31.37
2019-05-19T12:13:35.270Z,31.93
2019-05-19T12:16:04.291Z,34.27
2019-05-19T12:18:32.871Z,31.27
2019-05-19T12:21:01.396Z,30.00
2019-05-19T12:23:29.984Z,29.73
2019-05-19T12:25:58.665Z,30.97
2019-05-19T12:28:27.231Z,30.17
2019-05-19T12:30:55.771Z,31.13
2019-05-19T12:33:25.222Z,31.63
2019-05-19T12:35:53.800Z,33.57
2019-05-19T12:38:22.337Z,32.33
2019-05-19T12:40:50.908Z,35.87
2019-05-19T12:43:19.426Z,34.73
2019-05-19T12:45:48.767Z,35.17
2019-05-19T12:48:17.501Z,34.43
2019-05-19T12:50:46.097Z,33.20
2019-05-19T12:53:14.688Z,31.93
2019-05-19T12:55:43.240Z,33.30
2019-05-19T12:58:11.847Z,32.57
2019-05-19T13:00:40.429Z,30.43
2019-05-19T13:03:09.079Z,31.97
2019-05-19T13:05:37.599Z,30.97
2019-05-19T13:08:06.168Z,34.93
2019-05-19T13:10:34.751Z,33.83
2019-05-19T13:13:03.293Z,32.30
2019-05-19T13:15:31.782Z,31.80
2019-05-19T13:18:00.377Z,30.97
2019-05-19T13:20:28.958Z,31.57
2019-05-19T13:22:57.523Z,29.27
2019-05-19T13:25:26.066Z,27.63
2019-05-19T13:27:54.629Z,27.03
2019-05-19T13:30:23.202Z,25.47
2019-05-19T13:32:51.718Z,23.00
2019-05-19T13:35:20.363Z,25.77
2019-05-19T13:37:48.841Z,26.83
2019-05-19T13:40:17.436Z,28.47
2019-05-19T13:42:46.007Z,27.70
2019-05-19T13:45:15.941Z,27.17
2019-05-19T13:47:44.561Z,28.53
2019-05-19T13:50:13.277Z,27.20
2019-05-19T13:52:41.857Z,25.63
2019-05-19T13:55:11.735Z,26.53
2019-05-19T13:57:40.595Z,25.03
2019-05-19T14:00:09.908Z,25.63
2019-05-19T14:02:38.578Z,24.37
2019-05-19T14:05:07.648Z,23.33
2019-05-19T14:07:36.484Z,23.27
2019-05-19T14:10:06.882Z,25.57
2019-05-19T14:12:35.569Z,22.67
2019-05-19T14:15:06.262Z,22.93
2019-05-19T14:17:34.738Z,23.77
2019-05-19T14:20:05.261Z,25.90
2019-05-19T14:22:33.773Z,25.57
2019-05-19T14:25:02.269Z,25.03
2019-05-19T14:27:31.182Z,24.17
2019-05-19T14:29:59.790Z,23.77
2019-05-19T14:32:28.276Z,24.20
2019-05-19T14:34:56.778Z,24.13
2019-05-19T14:37:25.263Z,23.83
2019-05-19T14:39:53.763Z,25.77
2019-05-19T14:42:39.904Z,27.33
2019-05-19T14:45:08.998Z,28.27
2019-05-19T14:47:37.588Z,27.50
2019-05-19T14:50:06.912Z,29.70
2019-05-19T14:52:35.501Z,32.10
2019-05-19T14:55:04.050Z,32.10
2019-05-19T14:57:43.940Z,32.40
2019-05-19T15:00:03.221Z,33.50
2019-05-19T15:02:31.815Z,31.57
2019-05-19T15:05:00.364Z,32.90
2019-05-19T15:07:28.894Z,36.83
2019-05-19T15:09:57.456Z,35.70
2019-05-19T15:12:26.524Z,37.03
2019-05-19T15:14:55.024Z,36.83
2019-05-19T15:17:23.533Z,37.53
2019-05-19T15:19:52.049Z,36.43
2019-05-19T15:22:20.729Z,37.87
2019-05-19T15:24:49.222Z,36.30
2019-05-19T15:27:17.728Z,36.53
2019-05-19T15:29:46.319Z,35.40
2019-05-19T15:32:14.910Z,34.60
2019-05-19T15:34:43.466Z,31.40
2019-05-19T15:37:11.956Z,32.53
2019-05-19T15:39:40.555Z,30.20
2019-05-19T15:42:09.145Z,27.63
2019-05-19T15:44:37.715Z,22.43
2019-05-19T15:47:06.251Z,23.20
2019-05-19T15:49:35.198Z,26.80
2019-05-19T15:52:05.456Z,30.50
2019-05-19T15:54:34.064Z,31.03
2019-05-19T15:57:02.639Z,32.73
2019-05-19T15:59:31.231Z,34.70
2019-05-19T16:01:59.744Z,38.50
2019-05-19T16:04:28.318Z,35.70
2019-05-19T16:06:56.819Z,36.00
2019-05-19T16:09:25.357Z,38.33
2019-05-19T16:11:53.918Z,41.20
2019-05-19T16:14:22.455Z,38.90
2019-05-19T16:16:51.150Z,39.87
2019-05-19T16:19:19.728Z,40.80
2019-05-19T16:21:48.213Z,41.07
2019-05-19T16:24:16.783Z,44.20
2019-05-19T16:26:45.377Z,43.53
2019-05-19T16:29:13.874Z,42.13
2019-05-19T16:31:42.477Z,42.53
2019-05-19T16:34:11.028Z,42.83
2019-05-19T16:36:39.691Z,44.40
2019-05-19T16:39:08.459Z,43.33
2019-05-19T16:41:37.275Z,44.47
2019-05-19T16:44:05.879Z,44.63
2019-05-19T16:46:34.380Z,43.23
2019-05-19T16:49:03.343Z,43.30
2019-05-19T16:51:31.921Z,42.13
2019-05-19T16:54:05.260Z,44.47
2019-05-19T16:56:35.097Z,44.73
2019-05-19T16:59:03.749Z,43.80
2019-05-19T17:01:32.382Z,43.70
2019-05-19T17:04:00.936Z,45.87
2019-05-19T17:06:29.580Z,41.40
2019-05-19T17:08:58.091Z,41.53
2019-05-19T17:11:26.587Z,42.60
2019-05-19T17:13:55.067Z,41.67
2019-05-19T17:16:23.676Z,41.20
2019-05-19T17:18:52.247Z,41.70
2019-05-19T17:21:20.801Z,40.67
2019-05-19T17:23:49.385Z,41.70
2019-05-19T17:26:17.976Z,40.43
2019-05-19T17:28:59.742Z,38.40
2019-05-19T17:31:16.653Z,39.10
2019-05-19T17:33:45.240Z,39.27
2019-05-19T17:36:13.747Z,37.67
2019-05-19T17:38:42.233Z,38.70
2019-05-19T17:41:10.821Z,38.83
2019-05-19T17:43:39.679Z,39.33
2019-05-19T17:46:08.261Z,38.20
2019-05-19T17:48:36.959Z,38.30
2019-05-19T17:51:06.201Z,36.17
2019-05-19T17:53:34.872Z,36.67
2019-05-19T17:56:04.340Z,38.03
2019-05-19T17:58:33.926Z,37.53
2019-05-19T18:01:02.588Z,38.37
2019-05-19T18:03:31.912Z,37.00
2019-05-19T18:06:00.470Z,37.17
2019-05-19T18:08:30.449Z,37.03
2019-05-19T18:10:58.999Z,37.20
2019-05-19T18:13:27.997Z,37.57
2019-05-19T18:15:56.553Z,37.60
2019-05-19T18:18:25.140Z,37.10
2019-05-19T18:20:53.708Z,35.93
2019-05-19T18:23:22.261Z,35.40
2019-05-19T18:25:50.834Z,35.53
2019-05-19T18:28:19.401Z,36.63
2019-05-19T18:30:47.988Z,37.23
2019-05-19T18:33:16.598Z,38.13
2019-05-19T18:35:45.258Z,35.70
2019-05-19T18:38:13.830Z,37.53
2019-05-19T18:40:42.364Z,36.20
2019-05-19T18:43:10.904Z,36.20
2019-05-19T18:45:39.798Z,35.43
2019-05-19T18:48:08.366Z,37.63
2019-05-19T18:50:36.980Z,36.67
2019-05-19T18:53:05.565Z,37.83
2019-05-19T18:55:34.138Z,37.80
2019-05-19T18:58:02.735Z,38.20
2019-05-19T19:00:34.310Z,37.93
2019-05-19T19:03:03.200Z,37.77
2019-05-19T19:05:33.306Z,37.17
2019-05-19T19:08:02.103Z,38.07
2019-05-19T19:10:31.478Z,38.47
2019-05-19T19:13:00.070Z,38.80
2019-05-19T19:15:28.582Z,37.67
2019-05-19T19:17:57.170Z,39.10
2019-05-19T19:20:26.034Z,38.10
2019-05-19T19:22:54.612Z,39.23
2019-05-19T19:25:23.257Z,37.77
2019-05-19T19:27:51.847Z,37.73
2019-05-19T19:30:20.605Z,39.63
2019-05-19T19:32:49.239Z,39.80
2019-05-19T19:35:17.968Z,38.33
2019-05-19T19:37:46.931Z,38.40
2019-05-19T19:40:18.536Z,37.50
2019-05-19T19:42:47.083Z,36.40
2019-05-19T19:45:15.711Z,38.33
2019-05-19T19:47:44.273Z,37.43
2019-05-19T19:50:12.850Z,37.90
2019-05-19T19:52:41.566Z,38.77
2019-05-19T19:55:10.827Z,35.73
2019-05-19T19:57:39.327Z,36.20
2019-05-19T20:00:18.020Z,34.67
2019-05-19T20:02:38.212Z,33.37
2019-05-19T20:05:06.851Z,32.90
2019-05-19T20:07:35.436Z,33.50
2019-05-19T20:10:06.071Z,31.37
2019-05-19T20:12:34.724Z,33.93
2019-05-19T20:15:03.289Z,31.60
2019-05-19T20:17:31.899Z,32.93
2019-05-19T20:20:00.749Z,30.70
2019-05-19T20:22:29.238Z,29.57
2019-05-19T20:24:57.829Z,31.30
2019-05-19T20:27:26.468Z,28.87
2019-05-19T20:29:55.023Z,29.57
2019-05-19T20:32:24.570Z,27.93
2019-05-19T20:34:55.251Z,28.87
2019-05-19T20:37:23.808Z,28.23
2019-05-19T20:39:52.453Z,29.33
2019-05-19T20:42:20.988Z,28.93
2019-05-19T20:44:49.487Z,27.67
2019-05-19T20:47:18.102Z,29.03
2019-05-19T20:52:37.153Z,29.20
2019-05-19T20:55:06.858Z,27.33
2019-05-19T20:57:35.341Z,30.40
2019-05-19T21:00:06.054Z,28.13
2019-05-19T21:02:34.865Z,28.40
2019-05-19T21:05:03.345Z,27.97
2019-05-19T21:07:31.938Z,28.10
2019-05-19T21:10:00.523Z,27.90
2019-05-19T21:12:29.082Z,27.30
2019-05-19T21:14:57.596Z,27.37
2019-05-19T21:17:26.186Z,28.80
2019-05-19T21:19:55.747Z,30.20
2019-05-19T21:22:24.348Z,29.50
2019-05-19T21:24:53.013Z,29.00
2019-05-19T21:27:21.562Z,29.97
2019-05-19T21:29:50.085Z,29.43
2019-05-19T21:32:18.608Z,29.43
2019-05-19T21:34:47.248Z,27.23
2019-05-19T21:37:15.826Z,28.83
2019-05-19T21:39:44.379Z,27.97
2019-05-19T21:42:12.902Z,27.87
2019-05-19T21:44:41.457Z,28.03
2019-05-19T21:47:10.108Z,27.53
2019-05-19T21:49:38.684Z,28.07
2019-05-19T21:52:07.292Z,29.53
2019-05-19T21:54:35.792Z,29.70
2019-05-19T21:57:04.297Z,28.37
2019-05-19T21:59:32.870Z,30.77
2019-05-19T22:02:01.558Z,28.37
2019-05-19T22:04:30.256Z,30.93
2019-05-19T22:07:00.422Z,28.87
2019-05-19T22:09:29.001Z,30.77
2019-05-19T22:11:57.517Z,32.70
2019-05-19T22:14:26.043Z,33.33
2019-05-19T22:16:54.602Z,31.70
2019-05-19T22:19:23.140Z,32.27
2019-05-19T22:21:51.698Z,33.10
2019-05-19T22:24:20.265Z,31.17
2019-05-19T22:26:48.857Z,31.20
2019-05-19T22:29:17.408Z,30.90
2019-05-19T22:31:46.000Z,30.47
2019-05-19T22:34:14.548Z,29.87
2019-05-19T22:36:43.122Z,29.20
2019-05-19T22:39:11.733Z,30.77
2019-05-19T22:41:40.236Z,28.00
2019-05-19T22:44:08.845Z,27.23
2019-05-19T22:46:37.382Z,27.47
2019-05-19T22:49:05.868Z,26.10
2019-05-19T22:51:34.445Z,27.13
2019-05-19T22:54:02.937Z,26.33
2019-05-19T22:56:31.485Z,27.40
2019-05-19T22:59:00.097Z,27.63
2019-05-19T23:01:28.672Z,26.73
2019-05-19T23:03:57.162Z,27.37
2019-05-19T23:06:25.757Z,27.60
2019-05-19T23:08:54.338Z,26.27
2019-05-19T23:11:22.915Z,28.67
2019-05-19T23:13:51.470Z,28.20
2019-05-19T23:16:20.016Z,29.70
2019-05-19T23:18:48.608Z,30.10
2019-05-19T23:21:17.176Z,33.23
2019-05-19T23:23:45.744Z,32.17
2019-05-19T23:26:14.325Z,28.00
2019-05-19T23:28:42.817Z,29.67
2019-05-19T23:31:11.458Z,29.53
2019-05-19T23:33:40.026Z,28.67
2019-05-19T23:36:08.585Z,29.23
2019-05-19T23:38:37.158Z,27.83
2019-05-19T23:41:05.712Z,28.90
2019-05-19T23:43:34.228Z,30.13
2019-05-19T23:46:02.821Z,27.70
2019-05-19T23:48:31.392Z,28.30
2019-05-19T23:50:59.866Z,28.70
2019-05-19T23:53:28.415Z,29.20
2019-05-19T23:55:56.931Z,28.10
2019-05-19T23:58:25.538Z,27.40
